sensor_id;sensor_type;location;lat;lon;timestamp;temperature;humidity
5796;DHT22;2924;51.458;7.046;2023-08-31T00:01:40;11.70;99.90
5796;DHT22;2924;51.458;7.046;2023-08-31T00:04:06;11.60;99.90
5796;DHT22;2924;51.458;7.046;2023-08-31T00:06:43;11.50;99.90
5796;DHT22;2924;51.458;7.046;2023-08-31T00:09:10;11.40;99.90
5796;DHT22;2924;51.458;7.046;2023-08-31T00:11:36;11.50;99.90
5796;DHT22;2924;51.458;7.046;2023-08-31T00:14:02;11.50;99.90
5796;DHT22;2924;51.458;7.046;2023-08-31T00:16:28;11.50;99.90
5796;DHT22;2924;51.458;7.046;2023-08-31T00:18:56;11.50;99.90
5796;DHT22;2924;51.458;7.046;2023-08-31T00:21:21;11.60;99.90
5796;DHT22;2924;51.458;7.046;2023-08-31T00:23:47;11.70;99.90
5796;DHT22;2924;51.458;7.046;2023-08-31T00:26:13;11.70;99.90
5796;DHT22;2924;51.458;7.046;2023-08-31T00:28:40;11.60;99.90
5796;DHT22;2924;51.458;7.046;2023-08-31T00:31:11;11.70;99.90
5796;DHT22;2924;51.458;7.046;2023-08-31T00:33:39;11.80;99.90
5796;DHT22;2924;51.458;7.046;2023-08-31T00:36:05;11.70;99.90
5796;DHT22;2924;51.458;7.046;2023-08-31T00:38:31;11.70;99.90
5796;DHT22;2924;51.458;7.046;2023-08-31T00:40:57;11.60;99.90
5796;DHT22;2924;51.458;7.046;2023-08-31T00:43:22;11.60;99.90
5796;DHT22;2924;51.458;7.046;2023-08-31T00:45:50;11.50;99.90
5796;DHT22;2924;51.458;7.046;2023-08-31T00:48:17;11.60;99.90
5796;DHT22;2924;51.458;7.046;2023-08-31T00:50:46;11.70;99.90
5796;DHT22;2924;51.458;7.046;2023-08-31T00:53:12;11.60;99.90
5796;DHT22;2924;51.458;7.046;2023-08-31T00:55:38;11.60;99.90
5796;DHT22;2924;51.458;7.046;2023-08-31T00:58:06;11.70;99.90
5796;DHT22;2924;51.458;7.046;2023-08-31T01:01:05;11.60;99.90
5796;DHT22;2924;51.458;7.046;2023-08-31T01:04:16;11.60;99.90
5796;DHT22;2924;51.458;7.046;2023-08-31T01:09:36;11.50;99.90
5796;DHT22;2924;51.458;7.046;2023-08-31T01:12:09;11.50;99.90
5796;DHT22;2924;51.458;7.046;2023-08-31T01:14:45;11.50;99.90
5796;DHT22;2924;51.458;7.046;2023-08-31T01:17:15;11.50;99.90
5796;DHT22;2924;51.458;7.046;2023-08-31T01:19:51;11.40;99.90
5796;DHT22;2924;51.458;7.046;2023-08-31T01:22:29;11.40;99.90
5796;DHT22;2924;51.458;7.046;2023-08-31T01:24:58;11.40;99.90
5796;DHT22;2924;51.458;7.046;2023-08-31T01:27:23;11.30;99.90
5796;DHT22;2924;51.458;7.046;2023-08-31T01:29:49;11.30;99.90
5796;DHT22;2924;51.458;7.046;2023-08-31T01:32:15;11.20;99.90
5796;DHT22;2924;51.458;7.046;2023-08-31T01:34:41;11.30;99.90
5796;DHT22;2924;51.458;7.046;2023-08-31T01:37:16;11.20;99.90
5796;DHT22;2924;51.458;7.046;2023-08-31T01:39:49;11.20;99.90
5796;DHT22;2924;51.458;7.046;2023-08-31T01:42:17;11.10;99.90
5796;DHT22;2924;51.458;7.046;2023-08-31T01:44:44;11.00;99.90
5796;DHT22;2924;51.458;7.046;2023-08-31T01:47:11;11.00;99.90
5796;DHT22;2924;51.458;7.046;2023-08-31T01:49:39;10.90;99.90
5796;DHT22;2924;51.458;7.046;2023-08-31T01:52:05;10.90;99.90
5796;DHT22;2924;51.458;7.046;2023-08-31T01:54:31;10.80;99.90
5796;DHT22;2924;51.458;7.046;2023-08-31T01:56:58;10.80;99.90
5796;DHT22;2924;51.458;7.046;2023-08-31T01:59:24;10.80;99.90
5796;DHT22;2924;51.458;7.046;2023-08-31T02:01:49;10.80;99.90
5796;DHT22;2924;51.458;7.046;2023-08-31T02:04:15;10.80;99.90
5796;DHT22;2924;51.458;7.046;2023-08-31T02:06:41;10.70;99.90
5796;DHT22;2924;51.458;7.046;2023-08-31T02:09:07;10.70;99.90
5796;DHT22;2924;51.458;7.046;2023-08-31T02:11:32;10.70;99.90
5796;DHT22;2924;51.458;7.046;2023-08-31T02:14:03;10.60;99.90
5796;DHT22;2924;51.458;7.046;2023-08-31T02:16:29;10.50;99.90
5796;DHT22;2924;51.458;7.046;2023-08-31T02:18:54;10.40;99.90
5796;DHT22;2924;51.458;7.046;2023-08-31T02:21:20;10.50;99.90
5796;DHT22;2924;51.458;7.046;2023-08-31T02:23:45;10.60;99.90
5796;DHT22;2924;51.458;7.046;2023-08-31T02:26:11;10.60;99.90
5796;DHT22;2924;51.458;7.046;2023-08-31T02:28:37;10.60;99.90
5796;DHT22;2924;51.458;7.046;2023-08-31T02:31:03;10.60;99.90
5796;DHT22;2924;51.458;7.046;2023-08-31T02:33:28;10.60;99.90
5796;DHT22;2924;51.458;7.046;2023-08-31T02:35:54;10.60;99.90
5796;DHT22;2924;51.458;7.046;2023-08-31T02:38:21;10.50;99.90
5796;DHT22;2924;51.458;7.046;2023-08-31T02:40:47;10.60;99.90
5796;DHT22;2924;51.458;7.046;2023-08-31T02:43:13;10.60;99.90
5796;DHT22;2924;51.458;7.046;2023-08-31T02:45:39;10.60;99.90
5796;DHT22;2924;51.458;7.046;2023-08-31T02:48:06;10.50;99.90
5796;DHT22;2924;51.458;7.046;2023-08-31T02:50:33;10.50;99.90
5796;DHT22;2924;51.458;7.046;2023-08-31T02:52:59;10.50;99.90
5796;DHT22;2924;51.458;7.046;2023-08-31T02:55:25;10.50;99.90
5796;DHT22;2924;51.458;7.046;2023-08-31T02:57:50;10.50;99.90
5796;DHT22;2924;51.458;7.046;2023-08-31T03:00:16;10.40;99.90
5796;DHT22;2924;51.458;7.046;2023-08-31T03:02:42;10.40;99.90
5796;DHT22;2924;51.458;7.046;2023-08-31T03:05:09;10.40;99.90
5796;DHT22;2924;51.458;7.046;2023-08-31T03:07:34;10.40;99.90
5796;DHT22;2924;51.458;7.046;2023-08-31T03:10:00;10.50;99.90
5796;DHT22;2924;51.458;7.046;2023-08-31T03:12:26;10.50;99.90
5796;DHT22;2924;51.458;7.046;2023-08-31T03:14:51;10.40;99.90
5796;DHT22;2924;51.458;7.046;2023-08-31T03:17:17;10.40;99.90
5796;DHT22;2924;51.458;7.046;2023-08-31T03:19:42;10.30;99.90
5796;DHT22;2924;51.458;7.046;2023-08-31T03:22:08;10.40;99.90
5796;DHT22;2924;51.458;7.046;2023-08-31T03:24:33;10.50;99.90
5796;DHT22;2924;51.458;7.046;2023-08-31T03:26:59;10.50;99.90
5796;DHT22;2924;51.458;7.046;2023-08-31T03:29:24;10.50;99.90
5796;DHT22;2924;51.458;7.046;2023-08-31T03:31:50;10.60;99.90
5796;DHT22;2924;51.458;7.046;2023-08-31T03:34:16;10.60;99.90
5796;DHT22;2924;51.458;7.046;2023-08-31T03:36:41;10.60;99.90
5796;DHT22;2924;51.458;7.046;2023-08-31T03:39:07;10.50;99.90
5796;DHT22;2924;51.458;7.046;2023-08-31T03:41:33;10.50;99.90
5796;DHT22;2924;51.458;7.046;2023-08-31T03:44:01;10.50;99.90
5796;DHT22;2924;51.458;7.046;2023-08-31T03:46:26;10.50;99.90
5796;DHT22;2924;51.458;7.046;2023-08-31T03:48:52;10.40;99.90
5796;DHT22;2924;51.458;7.046;2023-08-31T03:51:18;10.40;99.90
5796;DHT22;2924;51.458;7.046;2023-08-31T03:53:43;10.40;99.90
5796;DHT22;2924;51.458;7.046;2023-08-31T03:56:10;10.40;99.90
5796;DHT22;2924;51.458;7.046;2023-08-31T03:58:35;10.50;99.90
5796;DHT22;2924;51.458;7.046;2023-08-31T04:01:01;10.40;99.90
5796;DHT22;2924;51.458;7.046;2023-08-31T04:03:27;10.30;99.90
5796;DHT22;2924;51.458;7.046;2023-08-31T04:05:55;10.30;99.90
5796;DHT22;2924;51.458;7.046;2023-08-31T04:08:21;10.30;99.90
5796;DHT22;2924;51.458;7.046;2023-08-31T04:10:47;10.40;99.90
5796;DHT22;2924;51.458;7.046;2023-08-31T04:13:12;10.30;99.90
5796;DHT22;2924;51.458;7.046;2023-08-31T04:15:38;10.30;99.90
5796;DHT22;2924;51.458;7.046;2023-08-31T04:18:03;10.20;99.90
5796;DHT22;2924;51.458;7.046;2023-08-31T04:20:29;10.20;99.90
5796;DHT22;2924;51.458;7.046;2023-08-31T04:22:55;10.20;99.90
5796;DHT22;2924;51.458;7.046;2023-08-31T04:25:20;10.20;99.90
5796;DHT22;2924;51.458;7.046;2023-08-31T04:27:46;10.10;99.90
5796;DHT22;2924;51.458;7.046;2023-08-31T04:30:12;10.20;99.90
5796;DHT22;2924;51.458;7.046;2023-08-31T04:32:37;10.20;99.90
5796;DHT22;2924;51.458;7.046;2023-08-31T04:35:03;10.20;99.90
5796;DHT22;2924;51.458;7.046;2023-08-31T04:37:31;10.20;99.90
5796;DHT22;2924;51.458;7.046;2023-08-31T04:39:57;10.20;99.90
5796;DHT22;2924;51.458;7.046;2023-08-31T04:42:23;10.20;99.90
5796;DHT22;2924;51.458;7.046;2023-08-31T04:44:49;10.20;99.90
5796;DHT22;2924;51.458;7.046;2023-08-31T04:47:15;10.20;99.90
5796;DHT22;2924;51.458;7.046;2023-08-31T04:49:41;10.30;99.90
5796;DHT22;2924;51.458;7.046;2023-08-31T04:52:06;10.30;99.90
5796;DHT22;2924;51.458;7.046;2023-08-31T04:54:32;10.30;99.90
5796;DHT22;2924;51.458;7.046;2023-08-31T04:56:57;10.30;99.90
5796;DHT22;2924;51.458;7.046;2023-08-31T04:59:23;10.30;99.90
5796;DHT22;2924;51.458;7.046;2023-08-31T05:01:48;10.30;99.90
5796;DHT22;2924;51.458;7.046;2023-08-31T05:04:14;10.40;99.90
5796;DHT22;2924;51.458;7.046;2023-08-31T05:06:40;10.40;99.90
5796;DHT22;2924;51.458;7.046;2023-08-31T05:09:05;10.40;99.90
5796;DHT22;2924;51.458;7.046;2023-08-31T05:11:31;10.50;99.90
5796;DHT22;2924;51.458;7.046;2023-08-31T05:13:57;10.50;99.90
5796;DHT22;2924;51.458;7.046;2023-08-31T05:16:22;10.60;99.90
5796;DHT22;2924;51.458;7.046;2023-08-31T05:18:49;10.60;99.90
5796;DHT22;2924;51.458;7.046;2023-08-31T05:21:14;10.70;99.90
5796;DHT22;2924;51.458;7.046;2023-08-31T05:23:40;10.70;99.90
5796;DHT22;2924;51.458;7.046;2023-08-31T05:26:06;10.80;99.90
5796;DHT22;2924;51.458;7.046;2023-08-31T05:28:32;10.90;99.90
5796;DHT22;2924;51.458;7.046;2023-08-31T05:31:00;11.00;99.90
5796;DHT22;2924;51.458;7.046;2023-08-31T05:33:26;11.10;99.90
5796;DHT22;2924;51.458;7.046;2023-08-31T05:35:54;11.20;99.90
5796;DHT22;2924;51.458;7.046;2023-08-31T05:38:19;11.20;99.90
5796;DHT22;2924;51.458;7.046;2023-08-31T05:40:45;11.30;99.90
5796;DHT22;2924;51.458;7.046;2023-08-31T05:43:15;11.30;99.90
5796;DHT22;2924;51.458;7.046;2023-08-31T05:45:41;11.40;99.90
5796;DHT22;2924;51.458;7.046;2023-08-31T05:48:07;11.40;99.90
5796;DHT22;2924;51.458;7.046;2023-08-31T05:50:33;11.30;99.90
5796;DHT22;2924;51.458;7.046;2023-08-31T05:52:59;11.40;99.90
5796;DHT22;2924;51.458;7.046;2023-08-31T05:55:25;11.50;99.90
5796;DHT22;2924;51.458;7.046;2023-08-31T05:57:50;11.60;99.90
5796;DHT22;2924;51.458;7.046;2023-08-31T06:00:17;11.70;99.90
5796;DHT22;2924;51.458;7.046;2023-08-31T06:02:43;11.80;99.90
5796;DHT22;2924;51.458;7.046;2023-08-31T06:05:10;11.90;99.90
5796;DHT22;2924;51.458;7.046;2023-08-31T06:07:38;12.00;99.90
5796;DHT22;2924;51.458;7.046;2023-08-31T06:10:04;12.10;99.90
5796;DHT22;2924;51.458;7.046;2023-08-31T06:12:30;12.10;99.90
5796;DHT22;2924;51.458;7.046;2023-08-31T06:14:56;12.20;99.90
5796;DHT22;2924;51.458;7.046;2023-08-31T06:17:21;12.30;99.90
5796;DHT22;2924;51.458;7.046;2023-08-31T06:19:47;12.40;99.90
5796;DHT22;2924;51.458;7.046;2023-08-31T06:22:12;12.60;99.90
5796;DHT22;2924;51.458;7.046;2023-08-31T06:24:38;12.70;99.90
5796;DHT22;2924;51.458;7.046;2023-08-31T06:27:04;12.90;99.90
5796;DHT22;2924;51.458;7.046;2023-08-31T06:29:29;13.00;99.90
5796;DHT22;2924;51.458;7.046;2023-08-31T06:31:55;13.00;99.90
5796;DHT22;2924;51.458;7.046;2023-08-31T06:34:21;13.30;99.90
5796;DHT22;2924;51.458;7.046;2023-08-31T06:36:46;13.40;99.90
5796;DHT22;2924;51.458;7.046;2023-08-31T06:39:12;13.70;99.90
5796;DHT22;2924;51.458;7.046;2023-08-31T06:41:37;14.10;99.90
5796;DHT22;2924;51.458;7.046;2023-08-31T06:44:03;14.50;99.90
5796;DHT22;2924;51.458;7.046;2023-08-31T06:46:30;14.70;99.90
5796;DHT22;2924;51.458;7.046;2023-08-31T06:48:59;14.90;99.90
5796;DHT22;2924;51.458;7.046;2023-08-31T06:51:25;15.10;99.90
5796;DHT22;2924;51.458;7.046;2023-08-31T06:53:51;15.40;99.90
5796;DHT22;2924;51.458;7.046;2023-08-31T06:56:16;15.80;99.90
5796;DHT22;2924;51.458;7.046;2023-08-31T06:58:42;16.20;99.90
5796;DHT22;2924;51.458;7.046;2023-08-31T07:01:08;16.40;99.90
5796;DHT22;2924;51.458;7.046;2023-08-31T07:03:34;16.90;99.90
5796;DHT22;2924;51.458;7.046;2023-08-31T07:06:00;17.30;99.90
5796;DHT22;2924;51.458;7.046;2023-08-31T07:08:26;17.40;99.90
5796;DHT22;2924;51.458;7.046;2023-08-31T07:10:51;17.10;99.90
5796;DHT22;2924;51.458;7.046;2023-08-31T07:13:17;17.10;99.90
5796;DHT22;2924;51.458;7.046;2023-08-31T07:15:43;17.40;99.90
5796;DHT22;2924;51.458;7.046;2023-08-31T07:18:09;18.00;99.90
5796;DHT22;2924;51.458;7.046;2023-08-31T07:20:34;18.50;99.90
5796;DHT22;2924;51.458;7.046;2023-08-31T07:23:00;18.70;99.90
5796;DHT22;2924;51.458;7.046;2023-08-31T07:25:26;18.80;99.90
5796;DHT22;2924;51.458;7.046;2023-08-31T07:27:52;19.00;99.90
5796;DHT22;2924;51.458;7.046;2023-08-31T07:30:18;19.10;99.90
5796;DHT22;2924;51.458;7.046;2023-08-31T07:32:44;19.50;99.90
5796;DHT22;2924;51.458;7.046;2023-08-31T07:35:09;19.80;99.90
5796;DHT22;2924;51.458;7.046;2023-08-31T07:37:35;19.90;99.90
5796;DHT22;2924;51.458;7.046;2023-08-31T07:40:03;20.10;99.90
5796;DHT22;2924;51.458;7.046;2023-08-31T07:42:29;20.30;99.90
5796;DHT22;2924;51.458;7.046;2023-08-31T07:44:55;20.30;99.90
5796;DHT22;2924;51.458;7.046;2023-08-31T07:47:20;20.70;99.90
5796;DHT22;2924;51.458;7.046;2023-08-31T07:49:46;21.10;99.90
5796;DHT22;2924;51.458;7.046;2023-08-31T07:52:12;21.30;99.90
5796;DHT22;2924;51.458;7.046;2023-08-31T07:54:37;21.60;99.90
5796;DHT22;2924;51.458;7.046;2023-08-31T07:57:03;21.90;99.90
5796;DHT22;2924;51.458;7.046;2023-08-31T07:59:29;22.30;99.90
5796;DHT22;2924;51.458;7.046;2023-08-31T08:01:55;22.40;99.90
5796;DHT22;2924;51.458;7.046;2023-08-31T08:04:21;21.80;99.90
5796;DHT22;2924;51.458;7.046;2023-08-31T08:06:49;21.40;99.90
5796;DHT22;2924;51.458;7.046;2023-08-31T08:09:15;21.20;99.90
5796;DHT22;2924;51.458;7.046;2023-08-31T08:11:41;21.40;99.90
5796;DHT22;2924;51.458;7.046;2023-08-31T08:14:07;21.40;99.90
5796;DHT22;2924;51.458;7.046;2023-08-31T08:16:33;21.10;99.90
5796;DHT22;2924;51.458;7.046;2023-08-31T08:19:01;21.30;99.90
5796;DHT22;2924;51.458;7.046;2023-08-31T08:21:26;21.50;99.90
5796;DHT22;2924;51.458;7.046;2023-08-31T08:23:52;21.70;99.90
5796;DHT22;2924;51.458;7.046;2023-08-31T08:26:17;22.20;99.90
5796;DHT22;2924;51.458;7.046;2023-08-31T08:28:43;23.00;99.90
5796;DHT22;2924;51.458;7.046;2023-08-31T08:31:08;23.00;99.90
5796;DHT22;2924;51.458;7.046;2023-08-31T08:33:34;22.90;99.90
5796;DHT22;2924;51.458;7.046;2023-08-31T08:36:00;22.60;99.90
5796;DHT22;2924;51.458;7.046;2023-08-31T08:38:26;22.70;99.90
5796;DHT22;2924;51.458;7.046;2023-08-31T08:40:51;23.20;99.90
5796;DHT22;2924;51.458;7.046;2023-08-31T08:43:22;23.00;99.90
5796;DHT22;2924;51.458;7.046;2023-08-31T08:45:51;22.70;99.90
5796;DHT22;2924;51.458;7.046;2023-08-31T08:48:18;22.90;99.90
5796;DHT22;2924;51.458;7.046;2023-08-31T08:50:45;22.90;99.90
5796;DHT22;2924;51.458;7.046;2023-08-31T08:53:11;22.70;99.90
5796;DHT22;2924;51.458;7.046;2023-08-31T08:55:36;22.60;99.90
5796;DHT22;2924;51.458;7.046;2023-08-31T08:58:03;22.70;99.90
5796;DHT22;2924;51.458;7.046;2023-08-31T09:00:29;22.90;99.90
5796;DHT22;2924;51.458;7.046;2023-08-31T09:02:56;23.30;99.90
5796;DHT22;2924;51.458;7.046;2023-08-31T09:05:22;23.90;99.90
5796;DHT22;2924;51.458;7.046;2023-08-31T09:08:02;24.00;99.90
5796;DHT22;2924;51.458;7.046;2023-08-31T09:10:39;23.90;99.90
5796;DHT22;2924;51.458;7.046;2023-08-31T09:13:09;24.40;99.90
5796;DHT22;2924;51.458;7.046;2023-08-31T09:15:45;24.70;99.90
5796;DHT22;2924;51.458;7.046;2023-08-31T09:18:29;24.60;99.90
5796;DHT22;2924;51.458;7.046;2023-08-31T09:20:56;24.60;99.90
5796;DHT22;2924;51.458;7.046;2023-08-31T09:23:25;24.30;99.90
5796;DHT22;2924;51.458;7.046;2023-08-31T09:25:52;24.30;99.90
5796;DHT22;2924;51.458;7.046;2023-08-31T09:28:23;23.80;99.90
5796;DHT22;2924;51.458;7.046;2023-08-31T09:30:50;23.80;99.90
5796;DHT22;2924;51.458;7.046;2023-08-31T09:33:17;24.00;99.90
5796;DHT22;2924;51.458;7.046;2023-08-31T09:35:51;24.50;99.90
5796;DHT22;2924;51.458;7.046;2023-08-31T09:38:17;25.10;99.90
5796;DHT22;2924;51.458;7.046;2023-08-31T09:40:42;25.90;99.90
5796;DHT22;2924;51.458;7.046;2023-08-31T09:43:08;26.20;99.90
5796;DHT22;2924;51.458;7.046;2023-08-31T09:45:34;26.30;99.00
5796;DHT22;2924;51.458;7.046;2023-08-31T09:48:02;25.60;99.20
5796;DHT22;2924;51.458;7.046;2023-08-31T09:50:29;24.10;99.90
5796;DHT22;2924;51.458;7.046;2023-08-31T09:53:03;23.60;99.90
5796;DHT22;2924;51.458;7.046;2023-08-31T09:55:32;23.60;99.90
5796;DHT22;2924;51.458;7.046;2023-08-31T09:58:00;23.50;99.90
5796;DHT22;2924;51.458;7.046;2023-08-31T10:00:27;23.20;99.90
5796;DHT22;2924;51.458;7.046;2023-08-31T10:03:00;23.30;99.90
5796;DHT22;2924;51.458;7.046;2023-08-31T10:05:26;23.60;99.90
5796;DHT22;2924;51.458;7.046;2023-08-31T10:07:52;23.40;99.90
5796;DHT22;2924;51.458;7.046;2023-08-31T10:10:18;23.30;99.90
5796;DHT22;2924;51.458;7.046;2023-08-31T10:12:45;22.90;99.90
5796;DHT22;2924;51.458;7.046;2023-08-31T10:15:14;22.50;99.90
5796;DHT22;2924;51.458;7.046;2023-08-31T10:17:40;22.30;99.90
5796;DHT22;2924;51.458;7.046;2023-08-31T10:20:08;22.00;99.90
5796;DHT22;2924;51.458;7.046;2023-08-31T10:22:34;21.70;99.90
5796;DHT22;2924;51.458;7.046;2023-08-31T10:25:01;21.40;99.90
5796;DHT22;2924;51.458;7.046;2023-08-31T10:27:41;21.10;99.90
5796;DHT22;2924;51.458;7.046;2023-08-31T10:35:48;22.60;99.90
5796;DHT22;2924;51.458;7.046;2023-08-31T10:38:27;23.30;99.90
5796;DHT22;2924;51.458;7.046;2023-08-31T10:41:01;23.90;99.90
5796;DHT22;2924;51.458;7.046;2023-08-31T10:48:58;24.50;99.20
5796;DHT22;2924;51.458;7.046;2023-08-31T10:51:31;24.80;99.30
5796;DHT22;2924;51.458;7.046;2023-08-31T10:54:11;25.20;98.70
5796;DHT22;2924;51.458;7.046;2023-08-31T10:59:24;23.80;98.50
5796;DHT22;2924;51.458;7.046;2023-08-31T11:02:00;23.00;99.90
5796;DHT22;2924;51.458;7.046;2023-08-31T11:04:28;23.10;99.90
5796;DHT22;2924;51.458;7.046;2023-08-31T11:09:39;24.20;99.90
5796;DHT22;2924;51.458;7.046;2023-08-31T11:12:05;23.80;99.90
5796;DHT22;2924;51.458;7.046;2023-08-31T11:14:31;24.00;99.90
5796;DHT22;2924;51.458;7.046;2023-08-31T11:16:57;24.60;99.90
5796;DHT22;2924;51.458;7.046;2023-08-31T11:19:22;25.00;98.30
5796;DHT22;2924;51.458;7.046;2023-08-31T11:21:48;24.80;97.80
5796;DHT22;2924;51.458;7.046;2023-08-31T11:24:16;23.80;98.80
5796;DHT22;2924;51.458;7.046;2023-08-31T11:26:42;23.00;99.90
5796;DHT22;2924;51.458;7.046;2023-08-31T11:29:07;22.90;99.90
5796;DHT22;2924;51.458;7.046;2023-08-31T11:31:38;23.00;99.90
5796;DHT22;2924;51.458;7.046;2023-08-31T11:34:07;23.30;99.90
5796;DHT22;2924;51.458;7.046;2023-08-31T11:36:37;23.80;99.90
5796;DHT22;2924;51.458;7.046;2023-08-31T11:39:03;24.30;99.60
5796;DHT22;2924;51.458;7.046;2023-08-31T11:41:36;24.40;98.30
5796;DHT22;2924;51.458;7.046;2023-08-31T11:44:06;24.00;98.00
5796;DHT22;2924;51.458;7.046;2023-08-31T11:46:32;23.30;99.90
5796;DHT22;2924;51.458;7.046;2023-08-31T11:48:59;22.70;99.90
5796;DHT22;2924;51.458;7.046;2023-08-31T11:51:26;22.40;99.90
5796;DHT22;2924;51.458;7.046;2023-08-31T11:53:55;22.30;99.90
5796;DHT22;2924;51.458;7.046;2023-08-31T11:56:21;22.50;99.90
5796;DHT22;2924;51.458;7.046;2023-08-31T11:58:50;23.00;99.90
5796;DHT22;2924;51.458;7.046;2023-08-31T12:01:20;23.30;99.90
5796;DHT22;2924;51.458;7.046;2023-08-31T12:03:47;23.50;99.90
5796;DHT22;2924;51.458;7.046;2023-08-31T12:06:16;23.70;99.90
5796;DHT22;2924;51.458;7.046;2023-08-31T12:08:42;23.90;99.10
5796;DHT22;2924;51.458;7.046;2023-08-31T12:11:08;23.80;99.90
5796;DHT22;2924;51.458;7.046;2023-08-31T12:13:34;23.70;99.90
5796;DHT22;2924;51.458;7.046;2023-08-31T12:15:59;23.30;99.90
5796;DHT22;2924;51.458;7.046;2023-08-31T12:18:29;23.20;99.90
5796;DHT22;2924;51.458;7.046;2023-08-31T12:20:56;23.00;99.90
5796;DHT22;2924;51.458;7.046;2023-08-31T12:23:22;22.80;99.90
5796;DHT22;2924;51.458;7.046;2023-08-31T12:25:54;22.70;99.90
5796;DHT22;2924;51.458;7.046;2023-08-31T12:28:21;22.70;99.90
5796;DHT22;2924;51.458;7.046;2023-08-31T12:30:52;22.70;99.90
5796;DHT22;2924;51.458;7.046;2023-08-31T12:33:18;23.10;99.90
5796;DHT22;2924;51.458;7.046;2023-08-31T12:35:44;23.40;99.90
5796;DHT22;2924;51.458;7.046;2023-08-31T12:38:10;23.70;99.50
5796;DHT22;2924;51.458;7.046;2023-08-31T12:40:36;23.60;99.70
5796;DHT22;2924;51.458;7.046;2023-08-31T12:43:06;23.60;99.90
5796;DHT22;2924;51.458;7.046;2023-08-31T12:45:32;23.60;99.80
5796;DHT22;2924;51.458;7.046;2023-08-31T12:47:59;23.80;99.50
5796;DHT22;2924;51.458;7.046;2023-08-31T12:50:24;23.80;99.00
5796;DHT22;2924;51.458;7.046;2023-08-31T12:52:50;23.80;98.70
5796;DHT22;2924;51.458;7.046;2023-08-31T12:55:16;23.40;99.90
5796;DHT22;2924;51.458;7.046;2023-08-31T12:57:42;23.10;99.90
5796;DHT22;2924;51.458;7.046;2023-08-31T13:00:09;23.10;99.90
5796;DHT22;2924;51.458;7.046;2023-08-31T13:02:41;22.70;99.90
5796;DHT22;2924;51.458;7.046;2023-08-31T13:05:10;22.80;99.90
5796;DHT22;2924;51.458;7.046;2023-08-31T13:07:37;22.90;99.90
5796;DHT22;2924;51.458;7.046;2023-08-31T13:10:04;22.90;99.90
5796;DHT22;2924;51.458;7.046;2023-08-31T13:12:33;23.00;99.90
5796;DHT22;2924;51.458;7.046;2023-08-31T13:15:00;22.90;99.90
5796;DHT22;2924;51.458;7.046;2023-08-31T13:17:26;23.00;99.90
5796;DHT22;2924;51.458;7.046;2023-08-31T13:19:53;23.20;99.90
5796;DHT22;2924;51.458;7.046;2023-08-31T13:22:19;23.00;99.90
5796;DHT22;2924;51.458;7.046;2023-08-31T13:24:45;22.90;99.90
5796;DHT22;2924;51.458;7.046;2023-08-31T13:27:11;22.70;99.90
5796;DHT22;2924;51.458;7.046;2023-08-31T13:29:37;22.60;99.90
5796;DHT22;2924;51.458;7.046;2023-08-31T13:32:02;22.40;99.90
5796;DHT22;2924;51.458;7.046;2023-08-31T13:34:28;22.20;99.90
5796;DHT22;2924;51.458;7.046;2023-08-31T13:36:54;22.20;99.90
5796;DHT22;2924;51.458;7.046;2023-08-31T13:39:20;22.40;99.90
5796;DHT22;2924;51.458;7.046;2023-08-31T13:41:45;22.90;99.60
5796;DHT22;2924;51.458;7.046;2023-08-31T13:44:11;23.30;98.80
5796;DHT22;2924;51.458;7.046;2023-08-31T13:46:37;23.80;98.40
5796;DHT22;2924;51.458;7.046;2023-08-31T13:49:02;24.00;98.40
5796;DHT22;2924;51.458;7.046;2023-08-31T13:51:28;24.10;97.70
5796;DHT22;2924;51.458;7.046;2023-08-31T13:53:54;24.20;98.20
5796;DHT22;2924;51.458;7.046;2023-08-31T13:56:20;24.60;98.20
5796;DHT22;2924;51.458;7.046;2023-08-31T13:58:45;24.90;97.50
5796;DHT22;2924;51.458;7.046;2023-08-31T14:01:11;24.90;97.00
5796;DHT22;2924;51.458;7.046;2023-08-31T14:03:38;24.90;97.50
5796;DHT22;2924;51.458;7.046;2023-08-31T14:06:04;24.50;98.20
5796;DHT22;2924;51.458;7.046;2023-08-31T14:08:29;23.90;99.20
5796;DHT22;2924;51.458;7.046;2023-08-31T14:10:55;22.90;99.90
5796;DHT22;2924;51.458;7.046;2023-08-31T14:13:21;22.40;99.90
5796;DHT22;2924;51.458;7.046;2023-08-31T14:15:47;22.10;99.90
5796;DHT22;2924;51.458;7.046;2023-08-31T14:18:13;21.80;99.90
5796;DHT22;2924;51.458;7.046;2023-08-31T14:20:39;21.60;99.90
5796;DHT22;2924;51.458;7.046;2023-08-31T14:23:05;21.30;99.90
5796;DHT22;2924;51.458;7.046;2023-08-31T14:25:35;20.90;99.90
5796;DHT22;2924;51.458;7.046;2023-08-31T14:28:01;20.60;99.90
5796;DHT22;2924;51.458;7.046;2023-08-31T14:30:28;20.50;99.90
5796;DHT22;2924;51.458;7.046;2023-08-31T14:32:54;20.20;99.90
5796;DHT22;2924;51.458;7.046;2023-08-31T14:35:19;19.40;99.90
5796;DHT22;2924;51.458;7.046;2023-08-31T14:37:46;18.30;99.90
5796;DHT22;2924;51.458;7.046;2023-08-31T14:40:11;17.40;99.90
5796;DHT22;2924;51.458;7.046;2023-08-31T14:42:37;16.60;99.90
5796;DHT22;2924;51.458;7.046;2023-08-31T14:45:03;16.20;99.90
5796;DHT22;2924;51.458;7.046;2023-08-31T14:47:29;15.80;99.90
5796;DHT22;2924;51.458;7.046;2023-08-31T14:49:57;15.60;99.90
5796;DHT22;2924;51.458;7.046;2023-08-31T14:52:23;15.40;99.90
5796;DHT22;2924;51.458;7.046;2023-08-31T14:54:49;15.20;99.90
5796;DHT22;2924;51.458;7.046;2023-08-31T14:57:14;15.20;99.90
5796;DHT22;2924;51.458;7.046;2023-08-31T14:59:40;15.10;99.90
5796;DHT22;2924;51.458;7.046;2023-08-31T15:02:07;15.10;99.90
5796;DHT22;2924;51.458;7.046;2023-08-31T15:04:33;15.00;99.90
5796;DHT22;2924;51.458;7.046;2023-08-31T15:06:58;15.00;99.90
5796;DHT22;2924;51.458;7.046;2023-08-31T15:09:24;15.00;99.90
5796;DHT22;2924;51.458;7.046;2023-08-31T15:11:50;14.90;99.90
5796;DHT22;2924;51.458;7.046;2023-08-31T15:14:16;15.00;99.90
5796;DHT22;2924;51.458;7.046;2023-08-31T15:16:41;15.10;99.90
5796;DHT22;2924;51.458;7.046;2023-08-31T15:19:07;15.10;99.90
5796;DHT22;2924;51.458;7.046;2023-08-31T15:21:33;15.20;99.90
5796;DHT22;2924;51.458;7.046;2023-08-31T15:23:59;15.30;99.90
5796;DHT22;2924;51.458;7.046;2023-08-31T15:26:25;15.30;99.90
5796;DHT22;2924;51.458;7.046;2023-08-31T15:28:51;15.40;99.90
5796;DHT22;2924;51.458;7.046;2023-08-31T15:31:17;15.30;99.90
5796;DHT22;2924;51.458;7.046;2023-08-31T15:33:42;15.30;99.90
5796;DHT22;2924;51.458;7.046;2023-08-31T15:36:09;15.30;99.90
5796;DHT22;2924;51.458;7.046;2023-08-31T15:38:36;15.30;99.90
5796;DHT22;2924;51.458;7.046;2023-08-31T15:41:04;15.40;99.90
5796;DHT22;2924;51.458;7.046;2023-08-31T15:43:34;15.40;99.90
5796;DHT22;2924;51.458;7.046;2023-08-31T15:46:01;15.50;99.90
5796;DHT22;2924;51.458;7.046;2023-08-31T15:48:27;15.50;99.90
5796;DHT22;2924;51.458;7.046;2023-08-31T15:50:55;15.50;99.90
5796;DHT22;2924;51.458;7.046;2023-08-31T15:53:21;15.50;99.90
5796;DHT22;2924;51.458;7.046;2023-08-31T15:55:48;15.50;99.90
5796;DHT22;2924;51.458;7.046;2023-08-31T15:58:14;15.50;99.90
5796;DHT22;2924;51.458;7.046;2023-08-31T16:00:40;15.60;99.90
5796;DHT22;2924;51.458;7.046;2023-08-31T16:03:06;15.60;99.90
5796;DHT22;2924;51.458;7.046;2023-08-31T16:05:33;15.60;99.90
5796;DHT22;2924;51.458;7.046;2023-08-31T16:08:00;15.60;99.90
5796;DHT22;2924;51.458;7.046;2023-08-31T16:10:26;15.70;99.90
5796;DHT22;2924;51.458;7.046;2023-08-31T16:12:51;15.80;99.90
5796;DHT22;2924;51.458;7.046;2023-08-31T16:15:17;16.00;99.90
5796;DHT22;2924;51.458;7.046;2023-08-31T16:17:42;16.10;99.90
5796;DHT22;2924;51.458;7.046;2023-08-31T16:20:08;16.10;99.90